Time;durP1;ratioP1;P1;durP2;ratioP2;P2;SDS_P1;SDS_P2;PMS_P1;PMS_P2;Temp;Humidity;BMP_temperature;BMP_pressure;BME280_temperature;BME280_humidity;BME280_pressure;Samples;Min_cycle;Max_cycle;Signal;HPM_P1;HPM_P2
2022/06/26 08:36:39;;;;;;;4.20;2.40;;;;;;;44.10;14.50;100741.39;81788;1371;544991;-69
2022/06/26 08:38:47;;;;;;;4.00;2.70;;;;;;;44.13;14.36;100745.20;84185;1339;22784;-69
2022/06/26 08:40:54;;;;;;;1.80;1.70;;;;;;;44.08;14.06;100744.42;84209;1340;22603;-69
2022/06/26 08:43:02;;;;;;;2.10;1.90;;;;;;;43.66;14.55;100739.18;84199;1340;22841;-69
2022/06/26 08:45:12;;;;;;;5.50;2.30;;;;;;;43.60;15.16;100748.35;84211;1339;22609;-69
2022/06/26 08:47:22;;;;;;;2.40;2.20;;;;;;;43.62;14.58;100740.87;84202;1339;25309;-69
2022/06/26 08:49:29;;;;;;;2.20;2.00;;;;;;;43.78;14.55;100739.77;84069;1339;193036;-69
2022/06/26 08:51:37;;;;;;;1.90;1.80;;;;;;;43.93;14.07;100740.73;84265;1340;22886;-69
2022/06/26 08:53:47;;;;;;;5.60;2.10;;;;;;;43.74;14.27;100740.85;84276;1341;22549;-70
2022/06/26 08:55:57;;;;;;;2.30;1.90;;;;;;;43.81;14.59;100740.57;84325;1335;22566;-70
2022/06/26 08:58:05;;;;;;;2.10;1.90;;;;;;;43.89;14.66;100740.71;84355;1335;22614;-70
2022/06/26 09:00:15;;;;;;;2.90;2.50;;;;;;;43.76;14.25;100746.84;84336;1338;22135;-70
2022/06/26 09:02:22;;;;;;;1.90;1.60;;;;;;;43.66;14.28;100740.34;84346;1339;22683;-70
2022/06/26 09:04:31;;;;;;;2.20;1.90;;;;;;;43.50;14.32;100744.00;84349;1339;22699;-70
2022/06/26 09:06:39;;;;;;;6.20;2.00;;;;;;;43.03;14.67;100741.03;84357;1339;23964;-70
2022/06/26 09:08:48;;;;;;;;;;;;;;;42.55;15.04;100740.79;84350;1333;22725;-70
2022/06/26 09:10:56;;;;;;;2.40;2.20;;;;;;;41.97;15.79;100746.90;84347;1327;22627;-70
2022/06/26 09:13:04;;;;;;;3.20;2.50;;;;;;;41.65;15.83;100741.88;84287;1337;24377;-70
2022/06/26 09:15:18;;;;;;;2.50;2.30;;;;;;;41.18;16.00;100732.67;84325;1339;22749;-70
2022/06/26 09:17:26;;;;;;;4.80;2.20;;;;;;;40.94;16.52;100734.99;84363;1335;22602;-70
2022/06/26 09:19:36;;;;;;;4.20;1.80;;;;;;;40.76;16.18;100732.71;84347;1339;22623;-70
2022/06/26 09:21:44;;;;;;;9.70;2.60;;;;;;;40.51;16.73;100738.42;84350;1336;22719;-70
2022/06/26 09:23:56;;;;;;;2.80;2.40;;;;;;;40.07;16.36;100748.58;84351;1339;22613;-70
2022/06/26 09:26:07;;;;;;;3.40;2.40;;;;;;;39.33;16.59;100747.57;84348;1339;22630;-69
2022/06/26 09:28:17;;;;;;;3.00;2.60;;;;;;;38.86;17.38;100739.70;84324;1339;23919;-69
2022/06/26 09:30:45;;;;;;;6.60;3.10;;;;;;;38.56;17.81;100744.85;84637;1333;22599;-69
2022/06/26 09:32:57;;;;;;;2.40;2.20;;;;;;;38.19;17.88;100741.92;84636;1330;22557;-69
2022/06/26 09:35:17;;;;;;;3.20;2.50;;;;;;;37.69;18.24;100752.11;84633;1333;22624;-69
2022/06/26 09:37:36;;;;;;;2.40;2.20;;;;;;;37.28;18.88;100750.61;84614;1332;24258;-69
2022/06/26 09:40:23;;;;;;;4.80;2.10;;;;;;;36.99;19.04;100748.52;84683;1329;25317;-69
2022/06/26 09:42:32;;;;;;;3.20;1.90;;;;;;;36.79;20.07;100745.55;84705;1328;22604;-69
2022/06/26 09:44:46;;;;;;;3.90;2.60;;;;;;;36.79;19.74;100741.02;84704;1331;23366;-69
2022/06/26 09:46:54;;;;;;;2.90;2.20;;;;;;;36.65;20.10;100744.31;84707;1325;22686;-69
2022/06/26 09:49:02;;;;;;;2.00;1.80;;;;;;;36.54;19.75;100742.75;84681;1329;22545;-69
2022/06/26 09:51:10;;;;;;;2.40;2.20;;;;;;;36.40;20.28;100735.85;84678;1329;24375;-69
2022/06/26 09:53:18;;;;;;;4.20;1.90;;;;;;;36.42;20.50;100737.40;84702;1332;22792;-68
2022/06/26 09:55:25;;;;;;;3.10;2.60;;;;;;;36.33;20.27;100743.77;84676;1324;22608;-69
2022/06/26 09:57:33;;;;;;;4.70;2.00;;;;;;;36.15;20.29;100747.42;84680;1324;24359;-69
2022/06/26 09:59:41;;;;;;;2.30;2.10;;;;;;;35.93;20.50;100744.66;84655;1331;22616;-70
2022/06/26 10:06:39;;;;;;;6.10;2.30;;;;;;;35.76;20.14;100734.33;84674;1328;22590;-71
2022/06/26 10:08:46;;;;;;;4.40;2.10;;;;;;;35.63;20.82;100737.30;84679;1331;24049;-71
2022/06/26 10:10:54;;;;;;;3.00;2.20;;;;;;;35.57;20.96;100735.77;84684;1329;24084;-71
2022/06/26 10:13:03;;;;;;;2.70;2.20;;;;;;;35.56;21.37;100730.48;84705;1330;22783;-71
2022/06/26 10:15:12;;;;;;;4.10;2.30;;;;;;;35.59;21.41;100730.94;84683;1330;22605;-71
2022/06/26 10:17:41;;;;;;;4.60;2.10;;;;;;;35.65;21.42;100723.17;84696;1330;22599;-77
2022/06/26 10:19:55;;;;;;;2.50;2.30;;;;;;;35.63;21.20;100725.23;84727;1332;22573;-71
2022/06/26 10:22:03;;;;;;;6.80;2.10;;;;;;;35.49;21.14;100727.15;84688;1330;22693;-70
2022/06/26 10:24:10;;;;;;;3.10;2.40;;;;;;;35.41;21.58;100724.54;84689;1331;22684;-71
2022/06/26 10:26:34;;;;;;;2.60;2.30;;;;;;;35.34;21.42;100724.98;84704;1328;22597;-71
2022/06/26 10:31:18;;;;;;;2.00;1.80;;;;;;;35.14;21.85;100725.17;81977;1367;545284;-69
2022/06/26 10:33:25;;;;;;;2.50;2.30;;;;;;;35.02;21.79;100731.20;84240;1339;22720;-71
2022/06/26 10:35:42;;;;;;;5.10;2.10;;;;;;;34.86;21.78;100732.44;84237;1340;22637;-71
2022/06/26 10:37:51;;;;;;;2.70;2.50;;;;;;;34.71;21.84;100726.11;84691;1331;22729;-71
2022/06/26 10:40:00;;;;;;;2.30;2.00;;;;;;;34.68;21.93;100719.71;84686;1330;22700;-70
2022/06/26 10:44:42;;;;;;;2.20;2.00;;;;;;;34.58;22.46;100717.52;84572;1330;208666;-71
2022/06/26 10:46:56;;;;;;;2.20;2.10;;;;;;;34.59;22.41;100713.98;84806;1327;24237;-71
2022/06/26 10:49:52;;;;;;;3.20;2.10;;;;;;;34.57;21.93;100701.23;84843;1321;22593;-69
2022/06/26 10:52:00;;;;;;;7.60;2.30;;;;;;;34.50;22.64;100710.29;84812;1321;22588;-71
2022/06/26 10:55:26;;;;;;;6.20;2.10;;;;;;;34.52;22.49;100713.88;84836;1327;22632;-71
2022/06/26 10:58:38;;;;;;;4.90;2.40;;;;;;;34.46;22.26;100712.18;84557;1331;24303;-70
2022/06/26 11:00:46;;;;;;;4.80;2.20;;;;;;;34.28;22.18;100719.08;84686;1326;22596;-71
2022/06/26 11:02:53;;;;;;;8.60;3.10;;;;;;;34.17;22.27;100716.77;84856;1327;22540;-71
2022/06/26 11:05:01;;;;;;;3.70;2.10;;;;;;;34.12;22.61;100714.23;84846;1325;22807;-71
2022/06/26 11:07:09;;;;;;;2.60;1.90;;;;;;;34.05;22.84;100717.73;84867;1327;24386;-71
2022/06/26 11:09:17;;;;;;;2.50;1.70;;;;;;;33.94;22.51;100719.02;84837;1323;22853;-71
2022/06/26 11:11:31;;;;;;;2.70;1.60;;;;;;;33.93;22.98;100717.38;84839;1327;22629;-71
2022/06/26 11:13:52;;;;;;;2.00;1.90;;;;;;;33.91;22.75;100719.38;84839;1318;22602;-71
2022/06/26 11:16:00;;;;;;;2.20;2.00;;;;;;;33.66;22.47;100714.54;84776;1325;22655;-69
2022/06/26 11:18:08;;;;;;;1.80;1.70;;;;;;;33.53;22.71;100703.11;84829;1326;24106;-70
2022/06/26 11:22:47;;;;;;;3.40;2.20;;;;;;;33.48;23.53;100696.53;84783;1327;24379;-70
2022/06/26 11:24:56;;;;;;;2.20;1.80;;;;;;;33.47;23.87;100697.65;84833;1325;24244;-75
2022/06/26 11:27:03;;;;;;;2.40;2.00;;;;;;;33.45;24.10;100707.54;84858;1322;22686;-71
2022/06/26 11:29:11;;;;;;;2.50;2.20;;;;;;;33.34;23.52;100712.36;84838;1327;22564;-71
2022/06/26 11:31:25;;;;;;;2.30;2.10;;;;;;;33.26;23.54;100710.14;84835;1326;22638;-69
2022/06/26 11:33:36;;;;;;;2.30;2.10;;;;;;;33.13;23.82;100715.64;84842;1327;22612;-71
2022/06/26 11:35:44;;;;;;;2.00;1.90;;;;;;;33.02;23.83;100711.55;84829;1326;22668;-71
2022/06/26 11:37:51;;;;;;;2.30;1.70;;;;;;;32.97;24.02;100703.77;84847;1326;22610;-71
2022/06/26 11:39:58;;;;;;;2.90;2.10;;;;;;;32.95;23.80;100699.02;84821;1326;22557;-71
2022/06/26 11:42:18;;;;;;;5.00;1.80;;;;;;;32.87;23.99;100693.23;84830;1327;23776;-71
2022/06/26 11:44:25;;;;;;;3.30;2.30;;;;;;;32.85;25.05;100696.34;84764;1327;22773;-71
2022/06/26 11:46:33;;;;;;;3.60;2.10;;;;;;;32.93;24.92;100699.25;84753;1327;22594;-71
2022/06/26 11:48:40;;;;;;;3.00;2.10;;;;;;;32.96;24.75;100695.91;84821;1321;22757;-71
2022/06/26 11:50:53;;;;;;;3.80;2.10;;;;;;;32.92;24.61;100696.52;84772;1327;22716;-71
2022/06/26 11:53:01;;;;;;;2.40;2.10;;;;;;;32.77;24.33;100701.46;84852;1327;22630;-71
2022/06/26 11:55:10;;;;;;;3.00;2.20;;;;;;;32.61;24.50;100697.73;84827;1326;22628;-71
2022/06/26 11:57:18;;;;;;;2.20;2.00;;;;;;;32.47;24.70;100694.77;84776;1327;22589;-71
2022/06/26 11:59:25;;;;;;;1.90;1.80;;;;;;;32.47;25.11;100694.90;84829;1327;25251;-71
2022/06/26 12:01:37;;;;;;;2.50;2.30;;;;;;;32.44;25.29;100699.70;84823;1329;22778;-70
2022/06/26 12:03:56;;;;;;;2.40;2.20;;;;;;;32.38;25.25;100697.13;84856;1327;24277;-70
2022/06/26 12:06:04;;;;;;;2.70;2.20;;;;;;;32.27;25.10;100698.29;84845;1322;22974;-70
2022/06/26 12:08:18;;;;;;;4.40;1.90;;;;;;;32.21;24.94;100689.23;84842;1325;24093;-70
2022/06/26 12:10:34;;;;;;;3.90;2.40;;;;;;;32.17;25.43;100697.26;84833;1326;22551;-70
2022/06/26 12:12:52;;;;;;;2.20;2.00;;;;;;;32.19;25.81;100695.37;84834;1326;22613;-70
2022/06/26 12:14:59;;;;;;;4.00;2.10;;;;;;;32.21;25.65;100698.42;84853;1327;22600;-70
2022/06/26 12:17:08;;;;;;;3.80;2.30;;;;;;;32.21;25.21;100690.64;84835;1327;23967;-70
2022/06/26 12:19:15;;;;;;;3.50;2.10;;;;;;;32.18;25.27;100686.86;84843;1327;22839;-70
2022/06/26 12:21:24;;;;;;;5.00;2.40;;;;;;;32.11;25.54;100691.12;84839;1326;24280;-69
2022/06/26 12:23:36;;;;;;;2.20;2.10;;;;;;;32.09;25.50;100683.93;84770;1327;25443;-70
2022/06/26 12:25:47;;;;;;;2.10;1.90;;;;;;;32.09;25.59;100682.01;84845;1327;22602;-69
2022/06/26 12:27:55;;;;;;;5.20;2.20;;;;;;;32.04;25.55;100684.00;84773;1326;26011;-69
2022/06/26 12:30:03;;;;;;;4.10;2.60;;;;;;;32.01;26.03;100684.46;84747;1327;24087;-69
2022/06/26 12:32:11;;;;;;;2.60;2.10;;;;;;;31.95;26.33;100687.13;84837;1326;22673;-69
2022/06/26 12:34:18;;;;;;;2.60;2.40;;;;;;;31.92;26.21;100684.11;84822;1326;22583;-70
2022/06/26 12:36:26;;;;;;;2.40;2.20;;;;;;;31.89;25.97;100684.12;84766;1326;23081;-69
2022/06/26 12:38:36;;;;;;;2.00;1.80;;;;;;;31.86;25.99;100684.66;84774;1328;22631;-69
2022/06/26 12:40:44;;;;;;;3.50;2.00;;;;;;;31.80;25.79;100682.35;84842;1325;22599;-69
2022/06/26 12:42:51;;;;;;;2.80;2.30;;;;;;;31.76;26.57;100681.41;84832;1323;22604;-70
2022/06/26 12:44:59;;;;;;;2.00;1.80;;;;;;;31.78;26.76;100683.59;84834;1329;22992;-69
2022/06/26 12:47:06;;;;;;;3.30;2.00;;;;;;;31.78;26.77;100680.17;84770;1327;22596;-69
2022/06/26 12:49:14;;;;;;;3.50;2.00;;;;;;;31.74;26.78;100678.40;84743;1327;22601;-69
2022/06/26 12:51:22;;;;;;;3.20;2.50;;;;;;;31.70;26.63;100678.69;84823;1322;22561;-69
2022/06/26 12:53:30;;;;;;;2.30;2.00;;;;;;;31.67;26.56;100677.60;84839;1328;23978;-69
2022/06/26 12:55:38;;;;;;;3.90;2.40;;;;;;;31.61;26.47;100677.45;84815;1325;24181;-70
2022/06/26 12:57:46;;;;;;;5.40;2.60;;;;;;;31.53;26.12;100680.20;84820;1321;22602;-70
2022/06/26 12:59:53;;;;;;;4.40;2.10;;;;;;;31.45;26.45;100684.42;84820;1326;22590;-70
2022/06/26 13:02:01;;;;;;;8.20;2.60;;;;;;;31.41;26.30;100679.30;84827;1325;24321;-69
2022/06/26 13:04:08;;;;;;;3.90;2.50;;;;;;;31.39;26.36;100681.22;84765;1328;25430;-70
2022/06/26 13:06:19;;;;;;;4.50;2.00;;;;;;;31.35;26.44;100675.18;84769;1327;23925;-70
2022/06/26 13:08:27;;;;;;;2.60;2.40;;;;;;;31.34;26.27;100677.45;84848;1326;25428;-70
2022/06/26 13:10:34;;;;;;;3.50;2.40;;;;;;;31.31;26.35;100683.78;84750;1322;22628;-70
2022/06/26 13:12:42;;;;;;;3.50;2.50;;;;;;;31.32;26.84;100679.13;84821;1326;25428;-70
2022/06/26 13:14:50;;;;;;;2.50;2.30;;;;;;;31.37;27.22;100678.98;84830;1325;22542;-69
2022/06/26 13:16:58;;;;;;;4.50;2.20;;;;;;;31.38;26.69;100681.16;84755;1325;22870;-70
2022/06/26 13:19:19;;;;;;;2.70;2.40;;;;;;;31.41;27.06;100679.04;84741;1327;22618;-69
2022/06/26 13:21:27;;;;;;;2.90;2.30;;;;;;;31.46;27.07;100675.87;84744;1327;22546;-69
2022/06/26 13:23:35;;;;;;;2.70;2.50;;;;;;;31.48;26.77;100674.14;84736;1326;22587;-70
2022/06/26 13:25:42;;;;;;;2.70;2.40;;;;;;;31.49;27.02;100672.66;84765;1330;23998;-70
2022/06/26 13:27:49;;;;;;;3.70;3.00;;;;;;;31.47;27.01;100676.98;84764;1327;22578;-70
2022/06/26 13:29:57;;;;;;;3.30;2.20;;;;;;;31.43;27.08;100674.65;84766;1329;23017;-70
2022/06/26 13:32:06;;;;;;;3.20;2.00;;;;;;;31.42;27.13;100676.34;84781;1327;23945;-69
2022/06/26 13:34:13;;;;;;;5.50;2.40;;;;;;;31.38;26.65;100671.77;84780;1326;22603;-69
2022/06/26 13:36:21;;;;;;;6.20;2.30;;;;;;;31.36;27.35;100673.65;84808;1327;22625;-69
2022/06/26 13:38:28;;;;;;;2.50;2.30;;;;;;;31.34;27.07;100677.48;84827;1326;24091;-69
2022/06/26 13:40:36;;;;;;;5.30;2.40;;;;;;;31.28;27.12;100673.90;84751;1327;22674;-69
2022/06/26 13:42:43;;;;;;;5.80;2.60;;;;;;;31.25;27.04;100670.40;84826;1326;22612;-74
2022/06/26 13:44:52;;;;;;;4.10;2.50;;;;;;;31.25;27.13;100677.09;84803;1326;22708;-74
2022/06/26 13:47:00;;;;;;;5.20;2.30;;;;;;;31.26;27.53;100678.80;84849;1327;22713;-75
2022/06/26 13:49:08;;;;;;;5.40;3.00;;;;;;;31.27;27.60;100679.18;84823;1327;25445;-73
2022/06/26 13:51:16;;;;;;;2.30;2.10;;;;;;;31.29;27.50;100683.70;84738;1327;22627;-74
2022/06/26 13:53:23;;;;;;;3.90;2.30;;;;;;;31.28;27.44;100687.39;84848;1327;24006;-74
2022/06/26 13:55:31;;;;;;;4.70;2.00;;;;;;;31.28;27.28;100685.02;84830;1327;22588;-73
2022/06/26 13:57:38;;;;;;;16.30;2.30;;;;;;;31.29;27.28;100679.04;84829;1326;24328;-73
2022/06/26 13:59:46;;;;;;;6.80;2.10;;;;;;;31.24;27.09;100679.89;84760;1326;22657;-73
2022/06/26 14:01:56;;;;;;;3.80;1.70;;;;;;;31.26;27.39;100678.30;84818;1322;22684;-74
2022/06/26 14:04:11;;;;;;;2.30;2.20;;;;;;;31.30;27.47;100679.94;84753;1327;22610;-74
2022/06/26 14:06:18;;;;;;;2.70;2.20;;;;;;;31.34;27.58;100676.09;84837;1327;23886;-74
2022/06/26 14:08:26;;;;;;;4.70;2.60;;;;;;;31.36;27.90;100677.67;84787;1327;22609;-74
2022/06/26 14:10:33;;;;;;;4.20;2.40;;;;;;;31.36;27.70;100672.73;84847;1327;22708;-74
2022/06/26 14:12:45;;;;;;;2.60;2.10;;;;;;;31.40;27.63;100674.98;84757;1327;22552;-73
2022/06/26 14:14:54;;;;;;;2.60;2.10;;;;;;;31.41;27.31;100679.41;84846;1326;22599;-73
2022/06/26 14:17:02;;;;;;;6.90;2.00;;;;;;;31.37;27.42;100675.52;84755;1327;22671;-74
2022/06/26 14:19:09;;;;;;;4.90;1.90;;;;;;;31.29;27.43;100673.41;84835;1327;25446;-74
2022/06/26 14:21:18;;;;;;;2.50;2.30;;;;;;;31.21;27.69;100672.56;84836;1327;22547;-74
2022/06/26 14:25:56;;;;;;;2.50;2.10;;;;;;;31.09;27.99;100671.13;84757;1327;23004;-74
2022/06/26 14:28:06;;;;;;;3.60;2.30;;;;;;;31.05;28.24;100671.08;84846;1327;22612;-69
2022/06/26 14:30:14;;;;;;;5.20;2.00;;;;;;;31.03;28.72;100678.52;84832;1325;22987;-70
2022/06/26 14:32:22;;;;;;;2.60;2.40;;;;;;;30.98;28.41;100678.29;84835;1329;25362;-71
2022/06/26 14:34:29;;;;;;;3.50;2.30;;;;;;;30.91;28.13;100674.02;84849;1325;22598;-71
2022/06/26 14:36:39;;;;;;;2.30;2.10;;;;;;;30.84;28.30;100673.57;84747;1321;22598;-70
2022/06/26 14:38:49;;;;;;;3.80;2.40;;;;;;;30.75;28.46;100678.55;84753;1327;25426;-70
2022/06/26 14:40:57;;;;;;;3.50;2.60;;;;;;;30.68;28.19;100672.16;84822;1326;24323;-69
2022/06/26 14:43:07;;;;;;;3.20;2.40;;;;;;;30.60;28.54;100674.79;84859;1327;24459;-70
2022/06/26 14:45:17;;;;;;;4.10;2.20;;;;;;;30.49;28.73;100678.02;84838;1327;22715;-69
2022/06/26 14:47:25;;;;;;;4.00;2.50;;;;;;;30.42;28.42;100674.19;84821;1326;22880;-70
2022/06/26 14:49:32;;;;;;;2.80;2.20;;;;;;;30.36;28.42;100673.50;84740;1327;22644;-70
2022/06/26 14:51:40;;;;;;;3.80;2.00;;;;;;;30.32;28.41;100669.56;84847;1326;25316;-70
2022/06/26 14:53:47;;;;;;;2.00;1.90;;;;;;;30.32;28.36;100668.15;84853;1325;22589;-70
2022/06/26 14:55:55;;;;;;;3.40;2.50;;;;;;;30.32;28.43;100671.96;84838;1327;22690;-70
2022/06/26 14:58:06;;;;;;;2.50;2.30;;;;;;;30.28;28.30;100670.95;84847;1326;22655;-68
2022/06/26 15:00:15;;;;;;;2.30;2.10;;;;;;;30.24;28.23;100662.98;84803;1326;22679;-69
2022/06/26 15:02:23;;;;;;;6.10;2.40;;;;;;;30.17;28.38;100668.50;84858;1327;24479;-69
2022/06/26 15:04:30;;;;;;;6.50;2.80;;;;;;;30.09;28.47;100670.63;84813;1327;23012;-69
2022/06/26 15:06:38;;;;;;;4.20;2.00;;;;;;;30.02;28.58;100667.34;84819;1326;23802;-72
2022/06/26 15:08:46;;;;;;;5.60;2.30;;;;;;;29.99;29.17;100666.91;84832;1327;23954;-73
2022/06/26 15:10:53;;;;;;;2.90;2.30;;;;;;;29.99;29.28;100667.24;84828;1329;22596;-71
2022/06/26 15:13:00;;;;;;;2.30;2.10;;;;;;;29.97;29.40;100663.93;84764;1328;22601;-70
2022/06/26 15:15:11;;;;;;;2.30;2.10;;;;;;;29.95;29.37;100659.36;84777;1327;22594;-70
2022/06/26 15:17:19;;;;;;;4.30;2.30;;;;;;;29.88;29.49;100662.84;84769;1327;22562;-72
2022/06/26 15:19:27;;;;;;;2.40;1.90;;;;;;;29.81;29.56;100662.40;84821;1326;24112;-71
2022/06/26 15:21:34;;;;;;;2.70;2.50;;;;;;;29.74;29.46;100660.14;84823;1327;22701;-71
2022/06/26 15:23:42;;;;;;;4.20;2.40;;;;;;;29.71;29.62;100662.27;84837;1328;22588;-71
2022/06/26 15:25:49;;;;;;;3.40;2.40;;;;;;;29.71;30.00;100660.83;84842;1327;22658;-71
2022/06/26 15:27:59;;;;;;;4.30;2.30;;;;;;;29.70;29.91;100656.52;84765;1327;23726;-72
2022/06/26 15:30:11;;;;;;;2.30;2.10;;;;;;;29.66;29.77;100663.23;84767;1327;22610;-72
2022/06/26 15:32:20;;;;;;;2.90;2.50;;;;;;;29.61;30.03;100654.80;84788;1327;25336;-72
2022/06/26 15:34:28;;;;;;;2.70;2.50;;;;;;;29.58;29.98;100651.45;84816;1327;22591;-71
2022/06/26 15:36:35;;;;;;;7.00;2.40;;;;;;;29.56;29.97;100644.95;84851;1328;23939;-69
2022/06/26 15:38:43;;;;;;;3.10;2.30;;;;;;;29.54;30.26;100647.46;84833;1326;22758;-69
2022/06/26 15:40:50;;;;;;;3.00;2.80;;;;;;;29.53;30.27;100648.14;84817;1326;25432;-69
2022/06/26 15:42:58;;;;;;;2.80;2.60;;;;;;;29.51;29.87;100647.59;84832;1327;22592;-69
2022/06/26 15:45:07;;;;;;;3.30;2.20;;;;;;;29.51;29.96;100644.60;84819;1327;22647;-70
2022/06/26 15:47:15;;;;;;;2.90;2.50;;;;;;;29.49;30.35;100646.38;84874;1326;24207;-69
2022/06/26 15:49:22;;;;;;;2.30;2.10;;;;;;;29.48;30.42;100651.76;84835;1327;25428;-69
2022/06/26 15:51:36;;;;;;;5.80;2.50;;;;;;;29.46;30.51;100652.20;84832;1321;22696;-70
2022/06/26 15:53:44;;;;;;;4.30;2.40;;;;;;;29.42;30.76;100655.14;84706;1327;25305;-70
2022/06/26 15:55:51;;;;;;;4.10;2.60;;;;;;;29.37;30.79;100658.94;84713;1327;22624;-70
2022/06/26 15:57:59;;;;;;;3.60;2.60;;;;;;;29.35;30.56;100657.05;84811;1326;25435;-70
2022/06/26 16:00:11;;;;;;;5.10;2.90;;;;;;;29.34;30.92;100658.23;84843;1327;23974;-70
2022/06/26 16:02:19;;;;;;;4.70;2.50;;;;;;;29.31;30.83;100657.02;84850;1327;22658;-70
2022/06/26 16:04:26;;;;;;;4.00;2.20;;;;;;;29.29;30.90;100655.66;84852;1327;22655;-70
2022/06/26 16:06:34;;;;;;;4.70;2.40;;;;;;;29.27;30.82;100651.82;84827;1322;22639;-70
2022/06/26 16:08:41;;;;;;;3.50;2.20;;;;;;;29.26;31.00;100651.56;84867;1327;22617;-70
2022/06/26 16:10:49;;;;;;;3.00;2.00;;;;;;;29.25;30.72;100651.11;84838;1322;22563;-70
2022/06/26 16:12:56;;;;;;;2.30;2.10;;;;;;;29.24;30.72;100650.48;84851;1325;22565;-70
2022/06/26 16:15:04;;;;;;;2.60;2.40;;;;;;;29.24;30.60;100648.77;84735;1328;22580;-70
2022/06/26 16:17:12;;;;;;;3.40;2.40;;;;;;;29.23;30.62;100649.92;84841;1326;25433;-70
2022/06/26 16:19:20;;;;;;;3.70;2.50;;;;;;;29.21;30.76;100647.06;84864;1327;22585;-70
2022/06/26 16:21:27;;;;;;;2.50;2.30;;;;;;;29.19;30.47;100646.45;84730;1330;22600;-70
2022/06/26 16:26:19;;;;;;;8.00;2.20;;;;;;;29.12;30.78;100653.30;84828;1326;22667;-69
2022/06/26 16:28:27;;;;;;;2.70;2.50;;;;;;;29.09;30.79;100654.26;84839;1326;25413;-69
2022/06/26 16:30:35;;;;;;;6.20;3.00;;;;;;;29.05;30.80;100649.08;84820;1327;25977;-69
2022/06/26 16:32:44;;;;;;;4.40;2.40;;;;;;;29.02;31.01;100653.66;84858;1329;22647;-69
2022/06/26 16:34:51;;;;;;;4.30;2.20;;;;;;;29.00;30.94;100652.16;84853;1322;22640;-69
2022/06/26 16:36:59;;;;;;;2.50;2.30;;;;;;;28.97;30.99;100647.58;84824;1325;23091;-69
2022/06/26 16:39:06;;;;;;;2.50;2.40;;;;;;;28.96;31.06;100648.42;84846;1327;22580;-69
2022/06/26 16:41:14;;;;;;;2.70;2.50;;;;;;;28.95;31.21;100645.70;84854;1327;22585;-69
2022/06/26 16:43:21;;;;;;;2.90;2.70;;;;;;;28.93;31.33;100647.89;84723;1327;22689;-69
2022/06/26 16:45:29;;;;;;;3.30;2.10;;;;;;;28.91;31.27;100648.77;84833;1327;25992;-69
2022/06/26 16:47:37;;;;;;;2.60;2.40;;;;;;;28.89;31.26;100649.75;84693;1323;22533;-69
2022/06/26 16:49:44;;;;;;;5.70;2.50;;;;;;;28.87;31.11;100649.45;84829;1326;25431;-69
2022/06/26 16:51:52;;;;;;;4.00;2.20;;;;;;;28.85;31.26;100650.97;84718;1327;24228;-69
2022/06/26 16:53:59;;;;;;;2.50;2.30;;;;;;;28.81;31.35;100654.01;84854;1327;22688;-69
2022/06/26 16:56:08;;;;;;;7.20;3.50;;;;;;;28.78;31.60;100654.38;84829;1325;22621;-69
2022/06/26 16:58:15;;;;;;;2.60;2.40;;;;;;;28.75;31.72;100656.33;84840;1329;22602;-69
2022/06/26 17:00:23;;;;;;;4.00;2.40;;;;;;;28.73;31.51;100654.55;84857;1325;24441;-69
2022/06/26 17:02:30;;;;;;;3.50;2.20;;;;;;;28.72;31.82;100653.75;84887;1326;22550;-71
2022/06/26 17:04:45;;;;;;;3.00;2.70;;;;;;;28.71;31.83;100656.74;84870;1327;25284;-71
2022/06/26 17:06:53;;;;;;;3.70;2.60;;;;;;;28.70;32.01;100659.05;84854;1327;24027;-71
2022/06/26 17:09:01;;;;;;;5.60;2.50;;;;;;;28.67;31.84;100662.10;84861;1327;22919;-72
2022/06/26 17:11:08;;;;;;;5.20;2.50;;;;;;;28.63;31.37;100659.60;84851;1327;24292;-71
2022/06/26 17:13:17;;;;;;;3.40;2.40;;;;;;;28.59;31.47;100658.85;84856;1326;22590;-69
2022/06/26 17:15:24;;;;;;;4.60;2.70;;;;;;;28.55;31.53;100657.41;84871;1329;22540;-70
2022/06/26 17:17:32;;;;;;;2.50;2.30;;;;;;;28.51;31.79;100661.52;84853;1327;22556;-71
2022/06/26 17:19:39;;;;;;;2.60;2.40;;;;;;;28.47;31.91;100661.25;84867;1327;22636;-70
2022/06/26 17:21:47;;;;;;;2.90;2.50;;;;;;;28.42;31.99;100662.52;84854;1327;23018;-71
2022/06/26 17:23:54;;;;;;;2.50;2.30;;;;;;;28.36;32.16;100661.70;84853;1326;25349;-70
2022/06/26 17:26:02;;;;;;;3.70;2.00;;;;;;;28.29;32.25;100657.34;84866;1326;22540;-71
2022/06/26 17:28:09;;;;;;;6.90;2.50;;;;;;;28.25;32.40;100659.44;84715;1327;22588;-69
2022/06/26 17:30:18;;;;;;;4.90;3.10;;;;;;;28.20;32.49;100656.56;84829;1327;22555;-70
2022/06/26 17:32:26;;;;;;;3.80;2.70;;;;;;;28.15;32.65;100654.64;84856;1327;25969;-69
2022/06/26 17:34:33;;;;;;;4.20;2.80;;;;;;;28.10;32.65;100657.48;84839;1327;22599;-68
2022/06/26 17:36:41;;;;;;;3.60;3.20;;;;;;;28.06;32.76;100660.44;84703;1327;22543;-69
2022/06/26 17:38:48;;;;;;;5.70;3.00;;;;;;;28.01;32.92;100657.11;84716;1327;22645;-69
2022/06/26 17:40:56;;;;;;;3.00;2.80;;;;;;;27.97;33.04;100659.04;84825;1324;22640;-69
2022/06/26 17:43:04;;;;;;;4.10;2.80;;;;;;;27.93;33.18;100660.79;84845;1327;22606;-69
2022/06/26 17:45:14;;;;;;;2.90;2.50;;;;;;;27.89;33.20;100664.27;84845;1325;22754;-69
2022/06/26 17:49:46;;;;;;;4.00;2.80;;;;;;;27.79;33.48;100664.20;84831;1325;22540;-69
2022/06/26 17:51:55;;;;;;;3.40;2.80;;;;;;;27.75;33.54;100663.91;84706;1327;23930;-69
2022/06/26 17:54:03;;;;;;;2.90;2.40;;;;;;;27.70;33.64;100664.25;84864;1328;22596;-69
2022/06/26 17:56:10;;;;;;;3.20;3.00;;;;;;;27.65;33.83;100665.86;84838;1328;25359;-69
2022/06/26 17:58:18;;;;;;;3.20;2.60;;;;;;;27.59;33.88;100660.39;84842;1328;22591;-69
2022/06/26 18:00:27;;;;;;;4.00;2.50;;;;;;;27.55;33.93;100662.98;84844;1324;22647;-69
2022/06/26 18:02:35;;;;;;;3.20;2.90;;;;;;;27.48;34.18;100665.25;84853;1328;22813;-69
2022/06/26 18:04:43;;;;;;;2.60;2.40;;;;;;;27.43;34.17;100667.30;84865;1321;22720;-69
2022/06/26 18:06:50;;;;;;;2.90;2.70;;;;;;;27.36;34.27;100671.92;84835;1321;23273;-68
2022/06/26 18:08:58;;;;;;;4.40;2.90;;;;;;;27.32;34.23;100669.36;84836;1323;22585;-68
2022/06/26 18:11:06;;;;;;;3.80;2.70;;;;;;;27.28;34.31;100670.42;84840;1325;24048;-71
2022/06/26 18:13:13;;;;;;;3.90;2.20;;;;;;;27.24;34.41;100668.71;84851;1325;22706;-69
2022/06/26 18:15:21;;;;;;;5.10;2.50;;;;;;;27.20;34.58;100671.44;84824;1328;22700;-69
2022/06/26 18:17:29;;;;;;;6.50;2.70;;;;;;;27.16;34.61;100671.34;84839;1329;25454;-69
2022/06/26 18:19:37;;;;;;;2.80;2.40;;;;;;;27.11;34.79;100671.83;84833;1329;22756;-68
2022/06/26 18:21:44;;;;;;;6.00;3.00;;;;;;;27.06;34.98;100678.41;84872;1329;22599;-69
2022/06/26 18:23:52;;;;;;;6.70;2.70;;;;;;;27.00;35.08;100677.22;84835;1328;22623;-68
2022/06/26 18:26:01;;;;;;;3.30;3.10;;;;;;;26.95;35.07;100676.81;84870;1327;22592;-68
2022/06/26 18:28:09;;;;;;;4.20;2.90;;;;;;;26.92;35.09;100680.02;84694;1330;24363;-68
2022/06/26 18:30:19;;;;;;;4.80;2.90;;;;;;;26.88;35.18;100680.46;84851;1327;22829;-68
2022/06/26 18:32:28;;;;;;;2.90;2.60;;;;;;;26.83;35.31;100680.43;84799;1327;22596;-68
2022/06/26 18:34:38;;;;;;;2.70;2.50;;;;;;;26.78;35.43;100678.59;84844;1326;22613;-68
2022/06/26 18:36:46;;;;;;;6.00;3.40;;;;;;;26.72;35.74;100681.51;84857;1325;23981;-69
2022/06/26 18:38:54;;;;;;;3.40;2.40;;;;;;;26.65;35.64;100680.38;84830;1324;22666;-69
2022/06/26 18:41:02;;;;;;;3.20;2.60;;;;;;;26.60;35.77;100685.43;84828;1329;23844;-68
2022/06/26 18:43:10;;;;;;;2.80;2.60;;;;;;;26.55;36.11;100683.98;84834;1328;24055;-68
2022/06/26 18:45:17;;;;;;;5.00;3.00;;;;;;;26.48;36.29;100688.20;84458;1330;316212;-68
2022/06/26 18:47:25;;;;;;;6.50;3.70;;;;;;;26.40;36.91;100692.00;84846;1325;22617;-68
2022/06/26 18:49:32;;;;;;;4.00;2.80;;;;;;;26.29;37.02;100692.39;84836;1328;22596;-68
2022/06/26 18:51:41;;;;;;;3.10;2.80;;;;;;;26.20;37.62;100695.63;84714;1327;23944;-68
2022/06/26 18:53:51;;;;;;;4.10;3.30;;;;;;;26.08;38.27;100697.02;84854;1329;22854;-68
2022/06/26 18:55:59;;;;;;;3.10;2.90;;;;;;;25.93;38.83;100701.17;84684;1332;22595;-68
2022/06/26 18:58:07;;;;;;;5.50;3.10;;;;;;;25.79;39.51;100702.91;84837;1326;23937;-68